createdAt,value
2023-05-20T00:02:54.231Z,97.96
2023-05-20T00:11:17.255Z,98.20
2023-05-20T00:19:40.164Z,98.78
2023-05-20T00:28:03.096Z,98.57
2023-05-20T00:36:26.023Z,98.68
2023-05-20T00:44:49.578Z,98.87
2023-05-20T00:53:12.947Z,98.85
2023-05-20T01:01:36.061Z,98.58
2023-05-20T01:09:59.884Z,98.53
2023-05-20T01:18:25.614Z,98.98
2023-05-20T01:26:50.433Z,99.14
2023-05-20T01:35:15.057Z,99.36
2023-05-20T01:43:39.801Z,99.62
2023-05-20T01:52:03.423Z,99.49
2023-05-20T02:00:26.832Z,99.65
2023-05-20T02:08:49.976Z,99.72
2023-05-20T02:17:17.810Z,99.91
2023-05-20T02:25:41.231Z,100.00
2023-05-20T02:34:06.477Z,100.00
2023-05-20T02:42:29.768Z,100.00
2023-05-20T02:50:53.194Z,100.00
2023-05-20T02:59:16.223Z,100.00
2023-05-20T03:07:39.146Z,99.96
2023-05-20T03:16:02.861Z,100.00
2023-05-20T03:24:27.257Z,100.00
2023-05-20T03:32:50.667Z,100.00
2023-05-20T03:41:13.854Z,99.97
2023-05-20T03:49:37.124Z,99.96
2023-05-20T03:58:01.410Z,99.72
2023-05-20T04:06:24.801Z,99.29
2023-05-20T04:14:50.154Z,98.94
2023-05-20T04:23:13.654Z,98.72
2023-05-20T04:31:38.574Z,98.51
2023-05-20T04:40:03.347Z,97.98
2023-05-20T04:48:27.082Z,97.54
2023-05-20T04:56:51.097Z,97.09
2023-05-20T05:05:14.268Z,95.84
2023-05-20T05:13:37.528Z,95.19
2023-05-20T05:22:00.698Z,94.05
2023-05-20T05:30:25.291Z,92.83
2023-05-20T05:38:48.457Z,91.93
2023-05-20T05:47:11.718Z,90.82
2023-05-20T05:55:34.868Z,88.92
2023-05-20T06:03:58.203Z,88.02
2023-05-20T06:12:21.300Z,86.19
2023-05-20T06:20:44.669Z,83.29
2023-05-20T06:29:07.840Z,82.21
2023-05-20T06:37:31.243Z,83.46
2023-05-20T06:45:54.408Z,81.67
2023-05-20T06:54:25.138Z,80.25
2023-05-20T07:02:48.214Z,80.09
2023-05-20T07:11:11.212Z,77.52
2023-05-20T07:19:34.799Z,77.79
2023-05-20T07:28:00.483Z,76.08
2023-05-20T07:36:23.788Z,75.34
2023-05-20T07:44:47.777Z,72.61
2023-05-20T07:53:11.278Z,73.80
2023-05-20T08:01:35.006Z,71.05
2023-05-20T08:09:58.713Z,70.51
2023-05-20T08:18:23.528Z,71.41
2023-05-20T08:26:46.514Z,70.79
2023-05-20T08:35:10.727Z,68.61
2023-05-20T08:43:34.608Z,68.27
2023-05-20T08:52:00.925Z,66.57
2023-05-20T09:00:28.731Z,66.24
2023-05-20T09:08:52.721Z,65.34
2023-05-20T09:17:15.912Z,63.50
2023-05-20T09:25:38.935Z,62.74
2023-05-20T09:34:02.186Z,62.36
2023-05-20T09:42:34.388Z,61.91
2023-05-20T09:50:58.900Z,59.79
2023-05-20T09:59:22.136Z,55.84
2023-05-20T10:07:44.938Z,54.81
2023-05-20T10:16:27.122Z,53.26
2023-05-20T10:25:06.674Z,52.01
2023-05-20T10:33:30.379Z,52.50
2023-05-20T10:41:53.293Z,51.40
2023-05-20T10:50:28.059Z,50.51
2023-05-20T10:58:55.148Z,49.26
2023-05-20T11:07:31.547Z,46.76
2023-05-20T11:15:55.196Z,38.95
2023-05-20T11:24:28.437Z,30.24
2023-05-20T11:32:59.238Z,26.54
2023-05-20T11:41:26.503Z,25.90
2023-05-20T11:49:49.727Z,26.38
2023-05-20T11:58:16.259Z,27.52
2023-05-20T12:06:39.808Z,25.51
2023-05-20T12:15:06.402Z,25.94
2023-05-20T12:23:30.848Z,28.28
2023-05-20T12:31:53.835Z,29.04
2023-05-20T12:40:17.084Z,26.42
2023-05-20T12:48:41.913Z,29.94
2023-05-20T12:57:06.026Z,33.54
2023-05-20T13:05:29.130Z,36.60
2023-05-20T13:13:52.048Z,32.90
2023-05-20T13:22:15.102Z,31.27
2023-05-20T13:30:38.500Z,29.02
2023-05-20T13:39:01.628Z,28.61
2023-05-20T13:47:24.730Z,30.91
2023-05-20T13:55:47.761Z,32.72
2023-05-20T14:04:12.703Z,33.62
2023-05-20T14:12:35.614Z,33.99
2023-05-20T14:20:58.544Z,30.71
2023-05-20T14:29:21.652Z,29.37
2023-05-20T14:37:45.258Z,29.12
2023-05-20T14:46:09.875Z,29.22
2023-05-20T14:54:35.698Z,31.85
2023-05-20T15:02:58.804Z,32.42
2023-05-20T15:11:22.512Z,32.59
2023-05-20T15:19:45.427Z,34.30
2023-05-20T15:28:08.397Z,35.52
2023-05-20T15:36:31.493Z,36.45
2023-05-20T15:44:54.398Z,37.59
2023-05-20T15:53:17.278Z,36.27
2023-05-20T16:01:40.428Z,35.23
2023-05-20T16:10:03.780Z,35.61
2023-05-20T16:18:30.532Z,35.07
2023-05-20T16:26:54.086Z,34.26
2023-05-20T16:35:17.286Z,33.23
2023-05-20T16:43:40.761Z,33.75
2023-05-20T16:52:05.944Z,34.02
2023-05-20T17:00:29.290Z,35.00
2023-05-20T17:08:52.228Z,35.94
2023-05-20T17:17:15.668Z,36.62
2023-05-20T17:25:38.770Z,37.99
2023-05-20T17:34:01.954Z,39.37
2023-05-20T17:42:25.218Z,41.33
2023-05-20T17:50:48.895Z,42.96
2023-05-20T17:59:12.095Z,44.73
2023-05-20T18:07:36.458Z,46.72
2023-05-20T18:16:00.699Z,49.00
2023-05-20T18:24:23.930Z,50.40
2023-05-20T18:32:47.994Z,51.33
2023-05-20T18:41:13.204Z,52.67
2023-05-20T18:49:36.211Z,53.96
2023-05-20T18:57:59.348Z,55.09
2023-05-20T19:06:22.536Z,56.47
2023-05-20T19:14:46.634Z,57.40
2023-05-20T19:23:09.587Z,58.04
2023-05-20T19:31:32.487Z,58.25
2023-05-20T19:39:55.521Z,58.58
2023-05-20T19:48:20.028Z,59.54
2023-05-20T19:56:46.291Z,60.68
2023-05-20T20:05:09.950Z,61.39
2023-05-20T20:13:33.443Z,61.51
2023-05-20T20:21:56.775Z,62.03
2023-05-20T20:30:21.689Z,61.29
2023-05-20T20:38:46.828Z,61.62
2023-05-20T20:47:10.148Z,62.26
2023-05-20T20:55:34.435Z,62.73
2023-05-20T21:03:58.671Z,62.72
2023-05-20T21:12:21.934Z,63.21
2023-05-20T21:20:44.852Z,63.95
2023-05-20T21:29:10.008Z,64.45
2023-05-20T21:37:32.995Z,64.75
2023-05-20T21:45:56.279Z,65.32
2023-05-20T21:54:19.163Z,66.08
2023-05-20T22:02:42.135Z,66.47
2023-05-20T22:11:05.729Z,67.09
2023-05-20T22:19:30.607Z,67.72
2023-05-20T22:27:53.609Z,67.91
2023-05-20T22:36:16.600Z,68.52
2023-05-20T22:44:39.664Z,69.01
2023-05-20T22:53:03.025Z,68.74
2023-05-20T23:01:26.062Z,68.65
2023-05-20T23:09:49.095Z,69.34
2023-05-20T23:18:12.389Z,69.91
2023-05-20T23:26:37.691Z,69.55
2023-05-20T23:35:04.836Z,70.02
2023-05-20T23:43:27.718Z,70.63
2023-05-20T23:51:51.719Z,70.82
